Galt, California
Current Conditions -  °F | °C
As of 10:45 PM on Friday 24 Oct 2014 (Local Time) from KMHR Reporting Station
Clear Clear  
Wind Chill: 55°   Ceiling: Unl
Heat Index: 55°   Visibility: 10mi
Dew Point: 55°   Wind: 5mph
Humidity: 100%   Direction: 140°SE
Pressure: 29.91"   Gusts: NA
Location:  38.25°N, 121.3°W
Report Text: KMHR 250545Z 14004KT 10SM SKC 13/13 A2991
Loading
Personal Weather Stations






























Interactive Weather Map
Tropical Storm Tracking
New forecast layout! Learn more

10-Day Weather Forecast

Advertisements
Track Severe Weather on mobile